sensor_id;sensor_type;location;lat;lon;timestamp;pressure;altitude;pressure_sealevel;temperature;humidity
57900;BME280;60605;53.716;19.940;2022-10-31T00:00:12;100689.27;;;6.94;100.00
57900;BME280;60605;53.716;19.940;2022-10-31T00:05:35;100681.44;;;6.92;100.00
57900;BME280;60605;53.716;19.940;2022-10-31T00:10:44;100683.56;;;6.88;100.00
57900;BME280;60605;53.716;19.940;2022-10-31T00:15:47;100682.48;;;6.86;100.00
57900;BME280;60605;53.716;19.940;2022-10-31T00:20:59;100685.11;;;6.84;100.00
57900;BME280;60605;53.716;19.940;2022-10-31T00:26:03;100686.73;;;6.82;100.00
57900;BME280;60605;53.716;19.940;2022-10-31T00:31:08;100695.42;;;6.77;100.00
57900;BME280;60605;53.716;19.940;2022-10-31T00:36:14;100699.97;;;6.72;100.00
57900;BME280;60605;53.716;19.940;2022-10-31T00:41:18;100706.28;;;6.63;100.00
57900;BME280;60605;53.716;19.940;2022-10-31T00:46:21;100708.06;;;6.54;100.00
57900;BME280;60605;53.716;19.940;2022-10-31T00:51:26;100709.56;;;6.44;100.00
57900;BME280;60605;53.716;19.940;2022-10-31T00:56:29;100711.88;;;6.34;100.00
57900;BME280;60605;53.716;19.940;2022-10-31T01:01:33;100714.85;;;6.25;100.00
57900;BME280;60605;53.716;19.940;2022-10-31T01:06:36;100723.63;;;6.17;100.00
57900;BME280;60605;53.716;19.940;2022-10-31T01:11:39;100726.08;;;6.13;100.00
57900;BME280;60605;53.716;19.940;2022-10-31T01:16:42;100724.02;;;6.12;100.00
57900;BME280;60605;53.716;19.940;2022-10-31T01:21:45;100721.48;;;6.13;100.00
57900;BME280;60605;53.716;19.940;2022-10-31T01:26:48;100720.84;;;6.14;100.00
57900;BME280;60605;53.716;19.940;2022-10-31T01:31:51;100728.61;;;6.15;100.00
57900;BME280;60605;53.716;19.940;2022-10-31T01:36:55;100729.58;;;6.16;100.00
57900;BME280;60605;53.716;19.940;2022-10-31T01:41:58;100733.09;;;6.17;100.00
57900;BME280;60605;53.716;19.940;2022-10-31T01:47:14;100737.35;;;6.17;100.00
57900;BME280;60605;53.716;19.940;2022-10-31T01:52:26;100735.91;;;6.21;100.00
57900;BME280;60605;53.716;19.940;2022-10-31T01:57:32;100742.67;;;6.31;100.00
57900;BME280;60605;53.716;19.940;2022-10-31T02:02:36;100744.38;;;6.38;100.00
57900;BME280;60605;53.716;19.940;2022-10-31T02:07:45;100745.09;;;6.41;100.00
57900;BME280;60605;53.716;19.940;2022-10-31T02:12:53;100746.07;;;6.40;100.00
57900;BME280;60605;53.716;19.940;2022-10-31T02:17:58;100750.17;;;6.37;100.00
57900;BME280;60605;53.716;19.940;2022-10-31T02:28:49;100759.81;;;6.31;100.00
57900;BME280;60605;53.716;19.940;2022-10-31T02:34:24;100767.32;;;6.28;100.00
57900;BME280;60605;53.716;19.940;2022-10-31T02:45:07;100766.55;;;6.31;100.00
57900;BME280;60605;53.716;19.940;2022-10-31T02:50:23;100768.71;;;6.38;100.00
57900;BME280;60605;53.716;19.940;2022-10-31T03:06:17;100782.43;;;6.65;100.00
57900;BME280;60605;53.716;19.940;2022-10-31T03:11:31;100784.76;;;6.79;100.00
57900;BME280;60605;53.716;19.940;2022-10-31T03:16:48;100782.83;;;6.93;100.00
57900;BME280;60605;53.716;19.940;2022-10-31T03:22:04;100784.98;;;7.04;100.00
57900;BME280;60605;53.716;19.940;2022-10-31T03:27:13;100781.39;;;7.14;100.00
57900;BME280;60605;53.716;19.940;2022-10-31T03:32:22;100778.21;;;7.20;100.00
57900;BME280;60605;53.716;19.940;2022-10-31T03:37:29;100779.63;;;7.25;100.00
57900;BME280;60605;53.716;19.940;2022-10-31T03:42:39;100783.48;;;7.28;100.00
57900;BME280;60605;53.716;19.940;2022-10-31T03:47:44;100787.23;;;7.29;100.00
57900;BME280;60605;53.716;19.940;2022-10-31T03:58:00;100789.30;;;7.30;100.00
57900;BME280;60605;53.716;19.940;2022-10-31T04:03:10;100792.74;;;7.30;100.00
57900;BME280;60605;53.716;19.940;2022-10-31T04:08:19;100799.23;;;7.29;100.00
57900;BME280;60605;53.716;19.940;2022-10-31T04:13:29;100799.79;;;7.28;100.00
57900;BME280;60605;53.716;19.940;2022-10-31T04:18:32;100800.84;;;7.26;100.00
57900;BME280;60605;53.716;19.940;2022-10-31T04:23:36;100804.90;;;7.24;100.00
57900;BME280;60605;53.716;19.940;2022-10-31T04:28:39;100809.96;;;7.23;100.00
57900;BME280;60605;53.716;19.940;2022-10-31T04:33:43;100813.25;;;7.22;100.00
57900;BME280;60605;53.716;19.940;2022-10-31T04:38:46;100814.10;;;7.20;100.00
57900;BME280;60605;53.716;19.940;2022-10-31T04:43:49;100807.45;;;7.16;100.00
57900;BME280;60605;53.716;19.940;2022-10-31T04:48:52;100801.52;;;7.12;100.00
57900;BME280;60605;53.716;19.940;2022-10-31T04:53:56;100795.50;;;7.10;100.00
57900;BME280;60605;53.716;19.940;2022-10-31T04:58:59;100790.73;;;7.07;100.00
57900;BME280;60605;53.716;19.940;2022-10-31T05:04:03;100788.26;;;7.05;100.00
57900;BME280;60605;53.716;19.940;2022-10-31T05:09:06;100790.21;;;7.02;100.00
57900;BME280;60605;53.716;19.940;2022-10-31T05:14:09;100789.52;;;7.00;100.00
57900;BME280;60605;53.716;19.940;2022-10-31T05:19:12;100789.23;;;6.99;100.00
57900;BME280;60605;53.716;19.940;2022-10-31T05:24:15;100785.11;;;6.97;100.00
57900;BME280;60605;53.716;19.940;2022-10-31T05:29:18;100786.77;;;6.97;100.00
57900;BME280;60605;53.716;19.940;2022-10-31T05:34:21;100782.20;;;6.96;100.00
57900;BME280;60605;53.716;19.940;2022-10-31T05:39:24;100788.81;;;6.95;100.00
57900;BME280;60605;53.716;19.940;2022-10-31T05:44:27;100787.43;;;6.95;100.00
57900;BME280;60605;53.716;19.940;2022-10-31T05:49:31;100787.09;;;6.95;100.00
57900;BME280;60605;53.716;19.940;2022-10-31T05:54:34;100787.61;;;6.97;100.00
57900;BME280;60605;53.716;19.940;2022-10-31T05:59:37;100778.36;;;7.02;100.00
57900;BME280;60605;53.716;19.940;2022-10-31T06:04:41;100776.02;;;7.09;100.00
57900;BME280;60605;53.716;19.940;2022-10-31T06:09:44;100770.55;;;7.20;100.00
57900;BME280;60605;53.716;19.940;2022-10-31T06:14:47;100778.71;;;7.36;100.00
57900;BME280;60605;53.716;19.940;2022-10-31T06:19:50;100785.00;;;7.58;100.00
57900;BME280;60605;53.716;19.940;2022-10-31T06:24:53;100792.27;;;7.80;100.00
57900;BME280;60605;53.716;19.940;2022-10-31T06:29:56;100799.96;;;8.06;100.00
57900;BME280;60605;53.716;19.940;2022-10-31T06:35:00;100801.60;;;8.31;100.00
57900;BME280;60605;53.716;19.940;2022-10-31T06:40:03;100808.39;;;8.59;100.00
57900;BME280;60605;53.716;19.940;2022-10-31T06:45:08;100810.06;;;9.20;100.00
57900;BME280;60605;53.716;19.940;2022-10-31T06:50:11;100813.59;;;10.57;100.00
57900;BME280;60605;53.716;19.940;2022-10-31T06:55:16;100816.41;;;12.02;100.00
57900;BME280;60605;53.716;19.940;2022-10-31T07:00:20;100823.07;;;13.39;100.00
57900;BME280;60605;53.716;19.940;2022-10-31T07:05:25;100827.00;;;14.54;96.28
57900;BME280;60605;53.716;19.940;2022-10-31T07:10:31;100831.95;;;15.57;91.52
57900;BME280;60605;53.716;19.940;2022-10-31T07:15:43;100826.02;;;16.68;87.57
57900;BME280;60605;53.716;19.940;2022-10-31T07:20:47;100829.01;;;17.47;84.00
57900;BME280;60605;53.716;19.940;2022-10-31T07:25:57;100833.52;;;18.40;81.30
57900;BME280;60605;53.716;19.940;2022-10-31T07:31:01;100835.80;;;19.81;78.09
57900;BME280;60605;53.716;19.940;2022-10-31T07:36:05;100843.59;;;21.22;73.49
57900;BME280;60605;53.716;19.940;2022-10-31T07:41:08;100849.94;;;22.31;68.94
57900;BME280;60605;53.716;19.940;2022-10-31T07:46:12;100857.13;;;23.05;65.54
57900;BME280;60605;53.716;19.940;2022-10-31T07:51:15;100870.56;;;23.75;61.41
57900;BME280;60605;53.716;19.940;2022-10-31T07:56:19;100879.43;;;24.54;57.38
57900;BME280;60605;53.716;19.940;2022-10-31T08:01:22;100878.48;;;25.37;53.56
57900;BME280;60605;53.716;19.940;2022-10-31T08:06:26;100872.80;;;25.71;50.01
57900;BME280;60605;53.716;19.940;2022-10-31T08:11:29;100878.31;;;26.11;49.38
57900;BME280;60605;53.716;19.940;2022-10-31T08:16:33;100879.77;;;26.59;48.04
57900;BME280;60605;53.716;19.940;2022-10-31T08:21:36;100875.52;;;26.93;45.87
57900;BME280;60605;53.716;19.940;2022-10-31T08:26:39;100872.80;;;27.08;44.01
57900;BME280;60605;53.716;19.940;2022-10-31T08:31:43;100869.74;;;27.20;43.79
57900;BME280;60605;53.716;19.940;2022-10-31T08:36:46;100869.64;;;27.51;44.05
57900;BME280;60605;53.716;19.940;2022-10-31T08:41:50;100872.03;;;28.22;43.56
57900;BME280;60605;53.716;19.940;2022-10-31T08:46:53;100875.18;;;29.26;41.89
57900;BME280;60605;53.716;19.940;2022-10-31T08:51:56;100875.67;;;29.89;39.40
57900;BME280;60605;53.716;19.940;2022-10-31T08:57:00;100879.34;;;30.03;38.36
57900;BME280;60605;53.716;19.940;2022-10-31T09:02:04;100882.95;;;30.13;37.53
57900;BME280;60605;53.716;19.940;2022-10-31T09:07:08;100881.11;;;30.24;37.17
57900;BME280;60605;53.716;19.940;2022-10-31T09:12:26;100889.23;;;30.48;35.83
57900;BME280;60605;53.716;19.940;2022-10-31T09:17:30;100889.41;;;30.31;35.86
57900;BME280;60605;53.716;19.940;2022-10-31T09:22:33;100889.05;;;30.28;36.17
57900;BME280;60605;53.716;19.940;2022-10-31T09:27:36;100883.15;;;30.78;36.48
57900;BME280;60605;53.716;19.940;2022-10-31T09:32:39;100883.61;;;31.18;35.09
57900;BME280;60605;53.716;19.940;2022-10-31T09:37:43;100884.32;;;31.59;36.11
57900;BME280;60605;53.716;19.940;2022-10-31T09:48:36;100891.07;;;33.43;34.24
57900;BME280;60605;53.716;19.940;2022-10-31T09:53:57;100898.67;;;33.90;33.65
57900;BME280;60605;53.716;19.940;2022-10-31T09:59:10;100889.95;;;31.75;33.61
57900;BME280;60605;53.716;19.940;2022-10-31T10:04:28;100876.55;;;27.80;37.41
57900;BME280;60605;53.716;19.940;2022-10-31T10:09:32;100869.41;;;24.40;42.69
57900;BME280;60605;53.716;19.940;2022-10-31T10:25:37;100860.09;;;20.42;54.72
57900;BME280;60605;53.716;19.940;2022-10-31T10:30:46;100851.56;;;19.51;57.68
57900;BME280;60605;53.716;19.940;2022-10-31T10:35:57;100843.38;;;18.81;60.50
57900;BME280;60605;53.716;19.940;2022-10-31T10:41:05;100845.77;;;18.39;63.40
57900;BME280;60605;53.716;19.940;2022-10-31T10:52:06;100842.57;;;18.12;65.64
57900;BME280;60605;53.716;19.940;2022-10-31T11:02:53;100850.83;;;17.64;69.18
57900;BME280;60605;53.716;19.940;2022-10-31T11:07:57;100849.33;;;17.69;70.09
57900;BME280;60605;53.716;19.940;2022-10-31T11:13:17;100843.16;;;17.62;70.61
57900;BME280;60605;53.716;19.940;2022-10-31T11:18:26;100838.00;;;17.37;71.54
57900;BME280;60605;53.716;19.940;2022-10-31T11:23:31;100831.39;;;17.21;72.46
57900;BME280;60605;53.716;19.940;2022-10-31T11:28:35;100826.91;;;17.14;73.70
57900;BME280;60605;53.716;19.940;2022-10-31T11:33:47;100824.38;;;17.12;74.34
57900;BME280;60605;53.716;19.940;2022-10-31T11:38:52;100822.55;;;17.08;74.85
57900;BME280;60605;53.716;19.940;2022-10-31T11:49:01;100825.44;;;17.02;76.51
57900;BME280;60605;53.716;19.940;2022-10-31T11:54:22;100818.77;;;16.95;77.16
57900;BME280;60605;53.716;19.940;2022-10-31T11:59:29;100816.91;;;16.76;78.39
57900;BME280;60605;53.716;19.940;2022-10-31T12:04:44;100819.41;;;16.64;79.51
57900;BME280;60605;53.716;19.940;2022-10-31T12:09:49;100814.86;;;16.62;80.11
57900;BME280;60605;53.716;19.940;2022-10-31T12:15:15;100811.99;;;16.62;80.72
57900;BME280;60605;53.716;19.940;2022-10-31T12:26:21;100806.98;;;16.53;80.62
57900;BME280;60605;53.716;19.940;2022-10-31T12:31:43;100798.70;;;16.44;80.52
57900;BME280;60605;53.716;19.940;2022-10-31T12:37:05;100796.91;;;16.39;80.80
57900;BME280;60605;53.716;19.940;2022-10-31T13:08:59;100782.98;;;16.21;81.33
57900;BME280;60605;53.716;19.940;2022-10-31T13:19:46;100788.13;;;16.25;81.75
57900;BME280;60605;53.716;19.940;2022-10-31T13:25:02;100782.10;;;16.27;82.04
57900;BME280;60605;53.716;19.940;2022-10-31T13:30:19;100784.45;;;16.27;82.25
57900;BME280;60605;53.716;19.940;2022-10-31T13:41:01;100783.91;;;16.24;82.57
57900;BME280;60605;53.716;19.940;2022-10-31T13:46:26;100784.20;;;16.18;82.78
57900;BME280;60605;53.716;19.940;2022-10-31T13:51:37;100788.89;;;16.12;83.03
57900;BME280;60605;53.716;19.940;2022-10-31T13:56:40;100783.58;;;16.05;83.53
57900;BME280;60605;53.716;19.940;2022-10-31T14:01:49;100789.42;;;15.98;83.87
57900;BME280;60605;53.716;19.940;2022-10-31T14:07:09;100787.40;;;15.89;84.31
57900;BME280;60605;53.716;19.940;2022-10-31T14:12:33;100779.18;;;15.78;84.75
57900;BME280;60605;53.716;19.940;2022-10-31T14:17:54;100781.23;;;15.64;85.31
57900;BME280;60605;53.716;19.940;2022-10-31T14:22:59;100784.23;;;15.51;86.11
57900;BME280;60605;53.716;19.940;2022-10-31T14:28:21;100777.03;;;15.43;87.00
57900;BME280;60605;53.716;19.940;2022-10-31T14:33:29;100773.21;;;15.38;87.64
57900;BME280;60605;53.716;19.940;2022-10-31T14:49:34;100781.27;;;15.29;88.71
57900;BME280;60605;53.716;19.940;2022-10-31T14:54:48;100772.56;;;15.23;89.20
57900;BME280;60605;53.716;19.940;2022-10-31T15:00:17;100767.30;;;15.19;89.85
57900;BME280;60605;53.716;19.940;2022-10-31T15:05:22;100763.30;;;15.16;90.57
57900;BME280;60605;53.716;19.940;2022-10-31T15:10:37;100764.90;;;15.13;90.75
57900;BME280;60605;53.716;19.940;2022-10-31T15:15:41;100768.14;;;15.10;91.11
57900;BME280;60605;53.716;19.940;2022-10-31T15:20:53;100769.42;;;15.06;91.41
57900;BME280;60605;53.716;19.940;2022-10-31T15:26:04;100771.98;;;15.03;91.84
57900;BME280;60605;53.716;19.940;2022-10-31T15:31:17;100777.98;;;14.99;92.27
57900;BME280;60605;53.716;19.940;2022-10-31T15:36:22;100781.45;;;14.95;92.39
57900;BME280;60605;53.716;19.940;2022-10-31T15:41:51;100781.76;;;14.91;92.65
57900;BME280;60605;53.716;19.940;2022-10-31T15:47:03;100784.59;;;14.85;92.98
57900;BME280;60605;53.716;19.940;2022-10-31T15:52:12;100780.71;;;14.78;93.18
57900;BME280;60605;53.716;19.940;2022-10-31T15:57:17;100778.64;;;14.71;93.62
57900;BME280;60605;53.716;19.940;2022-10-31T16:02:22;100780.33;;;14.62;93.82
57900;BME280;60605;53.716;19.940;2022-10-31T16:07:28;100790.39;;;14.53;93.97
57900;BME280;60605;53.716;19.940;2022-10-31T16:12:35;100789.96;;;14.48;94.08
57900;BME280;60605;53.716;19.940;2022-10-31T16:17:43;100786.13;;;14.42;94.42
57900;BME280;60605;53.716;19.940;2022-10-31T16:22:50;100787.68;;;14.37;95.41
57900;BME280;60605;53.716;19.940;2022-10-31T16:28:03;100792.80;;;14.33;96.30
57900;BME280;60605;53.716;19.940;2022-10-31T16:38:34;100800.84;;;14.27;99.27
57900;BME280;60605;53.716;19.940;2022-10-31T16:43:37;100809.46;;;14.20;99.85
57900;BME280;60605;53.716;19.940;2022-10-31T16:48:40;100818.36;;;14.14;100.00
57900;BME280;60605;53.716;19.940;2022-10-31T16:53:44;100825.41;;;14.10;100.00
57900;BME280;60605;53.716;19.940;2022-10-31T16:58:48;100824.45;;;14.06;100.00
57900;BME280;60605;53.716;19.940;2022-10-31T17:03:53;100826.95;;;14.00;100.00
57900;BME280;60605;53.716;19.940;2022-10-31T17:08:56;100827.50;;;13.96;100.00
57900;BME280;60605;53.716;19.940;2022-10-31T17:13:59;100829.08;;;13.89;100.00
57900;BME280;60605;53.716;19.940;2022-10-31T17:19:03;100830.81;;;13.83;100.00
57900;BME280;60605;53.716;19.940;2022-10-31T17:24:11;100831.70;;;13.77;100.00
57900;BME280;60605;53.716;19.940;2022-10-31T17:29:16;100832.26;;;13.70;100.00
57900;BME280;60605;53.716;19.940;2022-10-31T17:34:20;100836.55;;;13.63;100.00
57900;BME280;60605;53.716;19.940;2022-10-31T17:39:23;100832.43;;;13.56;100.00
57900;BME280;60605;53.716;19.940;2022-10-31T17:44:27;100827.71;;;13.50;100.00
57900;BME280;60605;53.716;19.940;2022-10-31T17:49:31;100828.10;;;13.44;100.00
57900;BME280;60605;53.716;19.940;2022-10-31T17:54:35;100828.73;;;13.39;100.00
57900;BME280;60605;53.716;19.940;2022-10-31T17:59:39;100823.81;;;13.35;100.00
57900;BME280;60605;53.716;19.940;2022-10-31T18:04:44;100817.46;;;13.32;100.00
57900;BME280;60605;53.716;19.940;2022-10-31T18:09:48;100811.65;;;13.28;100.00
57900;BME280;60605;53.716;19.940;2022-10-31T18:14:52;100809.37;;;13.15;100.00
57900;BME280;60605;53.716;19.940;2022-10-31T18:19:56;100808.94;;;12.93;100.00
57900;BME280;60605;53.716;19.940;2022-10-31T18:24:59;100807.61;;;12.78;100.00
57900;BME280;60605;53.716;19.940;2022-10-31T18:30:05;100806.11;;;12.66;100.00
57900;BME280;60605;53.716;19.940;2022-10-31T18:35:10;100802.91;;;12.57;100.00
57900;BME280;60605;53.716;19.940;2022-10-31T18:40:14;100808.66;;;12.50;100.00
57900;BME280;60605;53.716;19.940;2022-10-31T18:45:18;100808.84;;;12.45;100.00
57900;BME280;60605;53.716;19.940;2022-10-31T18:50:42;100808.87;;;12.39;100.00
57900;BME280;60605;53.716;19.940;2022-10-31T18:55:46;100809.04;;;12.35;100.00
57900;BME280;60605;53.716;19.940;2022-10-31T19:00:53;100811.20;;;12.31;100.00
57900;BME280;60605;53.716;19.940;2022-10-31T19:05:58;100809.21;;;12.28;100.00
57900;BME280;60605;53.716;19.940;2022-10-31T19:11:09;100806.17;;;12.26;100.00
57900;BME280;60605;53.716;19.940;2022-10-31T19:16:15;100798.80;;;12.25;100.00
57900;BME280;60605;53.716;19.940;2022-10-31T19:21:22;100795.24;;;12.21;100.00
57900;BME280;60605;53.716;19.940;2022-10-31T19:26:26;100796.52;;;12.17;100.00
57900;BME280;60605;53.716;19.940;2022-10-31T19:31:30;100794.17;;;12.15;100.00
57900;BME280;60605;53.716;19.940;2022-10-31T19:36:33;100795.11;;;12.15;100.00
57900;BME280;60605;53.716;19.940;2022-10-31T19:41:39;100804.52;;;12.16;100.00
57900;BME280;60605;53.716;19.940;2022-10-31T19:46:43;100807.55;;;12.16;100.00
57900;BME280;60605;53.716;19.940;2022-10-31T19:51:56;100808.54;;;12.17;100.00
57900;BME280;60605;53.716;19.940;2022-10-31T19:56:59;100807.66;;;12.16;100.00
57900;BME280;60605;53.716;19.940;2022-10-31T20:02:04;100805.57;;;12.16;100.00
57900;BME280;60605;53.716;19.940;2022-10-31T20:07:10;100803.36;;;12.15;100.00
57900;BME280;60605;53.716;19.940;2022-10-31T20:12:14;100801.05;;;12.14;100.00
57900;BME280;60605;53.716;19.940;2022-10-31T20:17:18;100803.60;;;12.14;100.00
57900;BME280;60605;53.716;19.940;2022-10-31T20:22:21;100802.89;;;12.14;100.00
57900;BME280;60605;53.716;19.940;2022-10-31T20:27:24;100804.75;;;12.15;100.00
57900;BME280;60605;53.716;19.940;2022-10-31T20:32:27;100801.41;;;12.16;100.00
57900;BME280;60605;53.716;19.940;2022-10-31T20:37:30;100800.70;;;12.16;100.00
57900;BME280;60605;53.716;19.940;2022-10-31T20:42:33;100796.48;;;12.17;100.00
57900;BME280;60605;53.716;19.940;2022-10-31T20:47:37;100797.72;;;12.19;100.00
57900;BME280;60605;53.716;19.940;2022-10-31T20:52:40;100793.57;;;12.21;100.00
57900;BME280;60605;53.716;19.940;2022-10-31T20:57:43;100794.86;;;12.23;100.00
57900;BME280;60605;53.716;19.940;2022-10-31T21:02:46;100797.29;;;12.25;100.00
57900;BME280;60605;53.716;19.940;2022-10-31T21:07:50;100794.12;;;12.29;100.00
57900;BME280;60605;53.716;19.940;2022-10-31T21:12:53;100781.64;;;12.31;100.00
57900;BME280;60605;53.716;19.940;2022-10-31T21:17:56;100785.20;;;12.33;100.00
57900;BME280;60605;53.716;19.940;2022-10-31T21:23:00;100787.59;;;12.34;100.00
57900;BME280;60605;53.716;19.940;2022-10-31T21:28:03;100785.23;;;12.35;100.00
57900;BME280;60605;53.716;19.940;2022-10-31T21:33:06;100784.45;;;12.36;100.00
57900;BME280;60605;53.716;19.940;2022-10-31T21:38:09;100782.04;;;12.36;100.00
57900;BME280;60605;53.716;19.940;2022-10-31T21:43:12;100780.63;;;12.36;100.00
57900;BME280;60605;53.716;19.940;2022-10-31T21:48:15;100778.53;;;12.36;100.00
57900;BME280;60605;53.716;19.940;2022-10-31T21:53:18;100776.21;;;12.35;100.00
57900;BME280;60605;53.716;19.940;2022-10-31T21:58:41;100774.80;;;12.35;100.00
57900;BME280;60605;53.716;19.940;2022-10-31T22:03:44;100772.54;;;12.35;100.00
57900;BME280;60605;53.716;19.940;2022-10-31T22:08:48;100775.60;;;12.35;100.00
57900;BME280;60605;53.716;19.940;2022-10-31T22:13:51;100776.00;;;12.34;100.00
57900;BME280;60605;53.716;19.940;2022-10-31T22:18:55;100774.36;;;12.34;100.00
57900;BME280;60605;53.716;19.940;2022-10-31T22:23:58;100770.91;;;12.33;100.00
57900;BME280;60605;53.716;19.940;2022-10-31T22:29:12;100764.20;;;12.30;100.00
57900;BME280;60605;53.716;19.940;2022-10-31T22:34:16;100759.04;;;12.28;100.00
57900;BME280;60605;53.716;19.940;2022-10-31T22:39:20;100757.10;;;12.26;100.00
57900;BME280;60605;53.716;19.940;2022-10-31T22:44:25;100758.72;;;12.24;100.00
57900;BME280;60605;53.716;19.940;2022-10-31T22:49:28;100760.16;;;12.22;100.00
57900;BME280;60605;53.716;19.940;2022-10-31T22:54:32;100762.23;;;12.20;100.00
57900;BME280;60605;53.716;19.940;2022-10-31T22:59:36;100762.86;;;12.17;100.00
57900;BME280;60605;53.716;19.940;2022-10-31T23:04:39;100762.05;;;12.14;100.00
57900;BME280;60605;53.716;19.940;2022-10-31T23:09:42;100761.84;;;12.11;100.00
57900;BME280;60605;53.716;19.940;2022-10-31T23:14:46;100759.78;;;12.08;100.00
57900;BME280;60605;53.716;19.940;2022-10-31T23:19:49;100757.13;;;12.06;100.00
57900;BME280;60605;53.716;19.940;2022-10-31T23:24:52;100754.63;;;12.04;100.00
57900;BME280;60605;53.716;19.940;2022-10-31T23:29:57;100747.94;;;12.01;100.00
57900;BME280;60605;53.716;19.940;2022-10-31T23:35:04;100752.08;;;11.99;100.00
57900;BME280;60605;53.716;19.940;2022-10-31T23:40:08;100752.94;;;11.98;100.00
57900;BME280;60605;53.716;19.940;2022-10-31T23:45:12;100750.23;;;11.96;100.00
57900;BME280;60605;53.716;19.940;2022-10-31T23:50:16;100746.67;;;11.94;100.00
57900;BME280;60605;53.716;19.940;2022-10-31T23:55:19;100739.34;;;11.92;100.00
